Texas General Land Office
 Texas General Land Office
 George P. Bush, Commissioner

 Oil Spill Prevention
 & Response

Texas Automated Buoy System
Real Time Ocean Observations
Supporting Oil Spill Prevention and
Response since 1995
Geochemical and Environmental Research Group

NOAA - NDBC Buoy 42035 -- Texas Automated Buoy System

NBDC Buoy 42035
Galveston
Conditions at 06/25/2019 10:20 UTC (06/25/2019 05:20 CDT)
29° 14.7830'N   94° 24.5000'W
22NM East of Galveston, TX
Anemometer height: 5m
Water Depth: 52 feet (16 meters)
Wind: 7.0 m/s (13.6 kts)
          From 150°T (SSE)
Wind Gust: 8.00 m/s (15.6 kts) Pressure: 1014.1 mb (29.95 inHg)
Air Temp: 29°C (84 °F) Dewpoint: 28°C (82°F) Relative Humidity: 94%
Sea Surf Temp: 28 °C (83 °F) Wave Height: 1.2m (3.9 ft) Wave Period: 6
  


IMPORTANT: Notice to Mariners


   Date      Time    Speed     Dir   Gust    AtmPr   AirT   DewPt   WaterT  RelH  WvHt  WvPer
          |  (UTC) | (m/s) |  (°T) | (m/s) |  (mb) |  (°C) |  (°C) |  (°C) | (%) | (m) | (s) |
==========+========+=======+=======+=======+=======+=======+=======+=======+=====+=====+=====+
06/25/2019 00:00:00    10.0     190    13.0 1012.80    28.8    24.2    28.4    76 -99.0  -99
06/25/2019 00:10:00    10.0     180    12.0 1013.00    28.5    24.9    28.4    80 -99.0  -99
06/25/2019 00:20:00     9.0     200    11.0 1013.00    28.6    24.4    28.4    78 -99.0  -99
06/25/2019 00:30:00     9.0     180    12.0 1013.00    28.7    24.0    28.4    75 -99.0  -99
06/25/2019 00:40:00     9.0     170    11.0 1012.80    28.7    24.3    28.4    77 -99.0  -99
06/25/2019 00:50:00     8.0     170    10.0 1012.80    28.7    24.3    28.4    77   1.3    4
06/25/2019 01:00:00     7.0     190     8.0 1012.70    28.9    24.6    28.4    77 -99.0  -99
06/25/2019 01:10:00     6.0     200     7.0 1012.50    29.1    23.6    28.4    72 -99.0  -99
06/25/2019 01:20:00     5.0     200     7.0 1012.20    29.1    23.6    28.4    72 -99.0  -99
06/25/2019 01:30:00     4.0     190     5.0 1012.00    28.9    23.2   -99.0    71 -99.0  -99
06/25/2019 01:40:00     4.0     190     6.0 1012.40    29.0    23.3    28.4    71 -99.0  -99
06/25/2019 01:50:00     5.0     200     6.0 1012.30    29.0    23.8    28.4    73   1.1    4
06/25/2019 02:00:00     4.0     190     5.0 1012.30    28.9    23.5    28.4    72 -99.0  -99
06/25/2019 02:10:00     3.0     210     5.0 1012.30    28.9    24.3    28.4    76 -99.0  -99
06/25/2019 02:20:00     5.0     220     7.0 1012.20    29.0    24.6    28.4    77 -99.0  -99
06/25/2019 02:30:00     4.0     220     6.0 1012.10    28.8    25.0    28.4    80 -99.0  -99
06/25/2019 02:40:00     3.0     200     4.0 1012.10    28.7    25.2    28.4    81 -99.0  -99
06/25/2019 02:50:00     2.0     200     4.0 1012.00    28.6    24.8    28.4    79   1.1    7
06/25/2019 03:00:00     2.0     140     3.0 1012.00    28.6    25.1    28.4    81 -99.0  -99
06/25/2019 03:10:00     3.0     160     5.0 1012.30    28.7    25.3    28.4    81 -99.0  -99
06/25/2019 03:20:00     4.0     160     5.0 1012.90    28.6    25.3    28.4    82 -99.0  -99
06/25/2019 03:30:00     5.0     160     6.0 1012.90    28.4    25.2    28.4    82 -99.0  -99
06/25/2019 03:40:00     4.0     150     5.0 1012.90    28.3    25.3    28.4    83 -99.0  -99
06/25/2019 03:50:00     4.0     150     4.0 1013.30    28.2    25.5   -99.0    85   1.2    6
06/25/2019 04:00:00     3.0     130     4.0 1013.30    28.2    25.6    28.4    85 -99.0  -99
06/25/2019 04:10:00     4.0     130     5.0 1013.60    28.2    25.8    28.4    86 -99.0  -99
06/25/2019 04:20:00     3.0     140     4.0 1014.00    28.2    26.0    28.4    87 -99.0  -99
06/25/2019 04:30:00     3.0     130     4.0 1014.40    28.3    26.0    28.4    87 -99.0  -99
06/25/2019 04:40:00     3.0     120     3.0 1014.40    28.3    26.2    28.4    88 -99.0  -99
06/25/2019 04:50:00     2.0     120     3.0 1014.50    28.4    26.2   -99.0    87   1.1    6
06/25/2019 05:00:00     3.0     120     5.0 1014.40    28.5    26.4    28.4    88 -99.0  -99
06/25/2019 05:10:00     4.0     130     5.0 1014.40    28.6    26.6    28.4    88 -99.0  -99
06/25/2019 05:20:00     4.0     120     5.0 1014.30    28.7    26.6    28.4    88 -99.0  -99
06/25/2019 05:30:00     4.0     110     5.0 1014.20    28.8    26.6    28.4    87 -99.0  -99
06/25/2019 05:40:00     3.0     110     4.0 1014.20    28.8    26.5    28.4    87 -99.0  -99
06/25/2019 05:50:00     3.0     100     4.0 1014.20    28.8    26.6    28.4    87   1.2    5
06/25/2019 06:00:00     3.0     100     3.0 1014.40    28.9    27.0    28.4    89 -99.0  -99
06/25/2019 06:10:00     3.0      90     4.0 1014.40    28.9    27.0    28.4    89 -99.0  -99
06/25/2019 06:20:00     3.0      70     4.0 1014.40    28.8    27.0    28.4    90 -99.0  -99
06/25/2019 06:30:00     4.0      70     5.0 1014.10    28.8    27.3    28.4    91 -99.0  -99
06/25/2019 06:40:00     4.0      70     5.0 1014.40    28.7    27.2    28.4    91   1.2  -99
06/25/2019 06:50:00     3.0      70     4.0 1014.40    28.7    27.2    28.3    91   1.2    6
06/25/2019 07:00:00     3.0      80     3.0 1014.60    28.8    27.4    28.3    92 -99.0  -99
06/25/2019 07:10:00     2.0      80     3.0 1014.70    28.8    27.4    28.3    92 -99.0  -99
06/25/2019 07:20:00     3.0      80     4.0 1014.30    28.8    27.5    28.3    92 -99.0  -99
06/25/2019 07:30:00     4.0      80     5.0 1014.10    28.8    27.7    28.3    93 -99.0  -99
06/25/2019 07:40:00     4.0      90     5.0 1014.20    28.8    27.9    28.3    94 -99.0  -99
06/25/2019 07:50:00     4.0     100     5.0 1014.30    28.7    27.8   -99.0    94   1.3    7
06/25/2019 08:00:00     4.0     110     5.0 1014.40    28.7    28.0    28.3    96 -99.0  -99
06/25/2019 08:10:00     4.0     110     5.0 1014.40    28.8    28.0    28.3    95 -99.0  -99
06/25/2019 08:20:00     4.0     110     5.0 1014.20    28.7    27.9    28.3    95 -99.0  -99
06/25/2019 08:30:00     4.0     110     5.0 1014.20    28.7    27.9    28.3    95 -99.0  -99
06/25/2019 08:40:00     5.0     120     6.0 1014.20    28.7    27.9    28.3    95   1.3  -99
06/25/2019 08:50:00     5.0     110     6.0 1014.20    28.7    27.9    28.3    95   1.3    7
06/25/2019 09:00:00     5.0     110     6.0 1014.20    28.8    28.0    28.3    95 -99.0  -99
06/25/2019 09:10:00     4.0     110     6.0 1014.10    28.8    28.1    28.3    96 -99.0  -99
06/25/2019 09:20:00     5.0     130     7.0 1014.10    28.8    28.2    28.4    96 -99.0  -99
06/25/2019 09:30:00     7.0     130     8.0 1014.00    28.8    28.1    28.4    96 -99.0  -99
06/25/2019 09:40:00     6.0     140     8.0 1014.00    28.8    28.1    28.4    96 -99.0  -99
06/25/2019 09:50:00     6.0     140     8.0 1014.00    28.8    28.1    28.4    96   1.2    6
06/25/2019 10:00:00     6.0     140     7.0 1014.10    28.9    28.2    28.4    96 -99.0  -99
06/25/2019 10:10:00     6.0     150     8.0 1014.00    28.9    28.0    28.4    94 -99.0  -99
06/25/2019 10:20:00     7.0     150     8.0 1014.10    28.9    27.9    28.4    94 -99.0  -99